createdAt,value
2019-05-16T00:00:40.309Z,1.40
2019-05-16T00:01:38.688Z,1.40
2019-05-16T00:02:38.545Z,1.40
2019-05-16T00:03:38.623Z,1.40
2019-05-16T00:04:38.609Z,1.40
2019-05-16T00:05:50.475Z,1.40
2019-05-16T00:06:39.196Z,1.40
2019-05-16T00:07:39.147Z,0.80
2019-05-16T00:08:38.910Z,0.80
2019-05-16T00:09:38.526Z,0.80
2019-05-16T00:10:38.553Z,0.80
2019-05-16T00:11:38.648Z,0.80
2019-05-16T00:12:39.980Z,0.80
2019-05-16T00:13:38.604Z,0.80
2019-05-16T00:14:38.771Z,0.80
2019-05-16T00:15:38.618Z,0.80
2019-05-16T00:16:38.618Z,0.80
2019-05-16T00:17:38.945Z,2.50
2019-05-16T00:18:38.939Z,2.50
2019-05-16T00:19:38.605Z,2.50
2019-05-16T00:20:38.751Z,2.50
2019-05-16T00:21:38.588Z,2.50
2019-05-16T00:22:39.346Z,2.50
2019-05-16T00:23:38.544Z,2.50
2019-05-16T00:24:38.599Z,2.50
2019-05-16T00:25:38.722Z,2.50
2019-05-16T00:26:39.023Z,2.50
2019-05-16T00:27:38.872Z,0.80
2019-05-16T00:28:38.525Z,0.80
2019-05-16T00:29:38.597Z,0.80
2019-05-16T00:30:39.111Z,0.80
2019-05-16T00:31:38.597Z,0.80
2019-05-16T00:32:39.199Z,0.80
2019-05-16T00:33:38.527Z,0.80
2019-05-16T00:34:38.656Z,0.80
2019-05-16T00:35:38.961Z,0.80
2019-05-16T00:36:38.536Z,0.80
2019-05-16T00:37:39.309Z,1.10
2019-05-16T00:38:38.624Z,1.10
2019-05-16T00:39:38.912Z,1.10
2019-05-16T00:40:38.629Z,1.10
2019-05-16T00:41:38.713Z,1.10
2019-05-16T00:42:39.239Z,1.10
2019-05-16T00:43:38.630Z,1.10
2019-05-16T00:44:38.844Z,1.10
2019-05-16T00:45:38.699Z,1.10
2019-05-16T00:46:38.797Z,1.10
2019-05-16T00:47:39.172Z,2.00
2019-05-16T00:48:38.606Z,2.00
2019-05-16T00:49:38.724Z,2.00
2019-05-16T00:50:38.840Z,2.00
2019-05-16T00:51:38.572Z,2.00
2019-05-16T00:52:39.491Z,2.00
2019-05-16T00:53:38.547Z,2.00
2019-05-16T00:54:38.552Z,2.00
2019-05-16T00:55:38.906Z,2.00
2019-05-16T00:56:38.549Z,2.00
2019-05-16T00:57:39.123Z,0.60
2019-05-16T00:58:38.573Z,0.60
2019-05-16T00:59:38.639Z,0.60
2019-05-16T01:00:38.580Z,0.60
2019-05-16T01:01:39.053Z,0.60
2019-05-16T01:02:38.639Z,0.60
2019-05-16T01:03:38.633Z,0.60
2019-05-16T01:04:38.641Z,0.60
2019-05-16T01:05:38.944Z,0.60
2019-05-16T01:06:38.576Z,0.60
2019-05-16T01:07:39.092Z,0.50
2019-05-16T01:08:38.700Z,0.50
2019-05-16T01:09:38.759Z,0.50
2019-05-16T01:10:39.088Z,0.50
2019-05-16T01:11:38.587Z,0.50
2019-05-16T01:12:39.201Z,0.50
2019-05-16T01:13:38.570Z,0.50
2019-05-16T01:14:38.642Z,0.50
2019-05-16T01:15:38.637Z,0.50
2019-05-16T01:16:38.650Z,0.50
2019-05-16T01:17:39.212Z,1.99
2019-05-16T01:18:38.653Z,1.99
2019-05-16T01:19:38.653Z,1.99
2019-05-16T01:20:38.780Z,1.99
2019-05-16T01:21:39.239Z,1.99
2019-05-16T01:22:38.757Z,1.99
2019-05-16T01:23:38.936Z,1.99
2019-05-16T01:24:41.480Z,1.99
2019-05-16T01:25:38.887Z,1.99
2019-05-16T01:26:39.188Z,1.99
2019-05-16T01:27:38.884Z,0.60
2019-05-16T01:28:38.538Z,0.60
2019-05-16T01:29:38.665Z,0.60
2019-05-16T01:30:38.717Z,0.60
2019-05-16T01:31:38.666Z,0.60
2019-05-16T01:32:39.462Z,0.60
2019-05-16T01:33:38.715Z,0.60
2019-05-16T01:34:38.583Z,0.60
2019-05-16T01:35:39.550Z,0.60
2019-05-16T01:36:40.768Z,0.60
2019-05-16T01:37:38.646Z,0.50
2019-05-16T01:38:39.105Z,0.50
2019-05-16T01:39:38.591Z,0.50
2019-05-16T01:40:38.904Z,0.50
2019-05-16T01:41:38.672Z,0.50
2019-05-16T01:42:38.868Z,0.50
2019-05-16T01:43:38.695Z,0.50
2019-05-16T01:44:38.603Z,0.50
2019-05-16T01:45:38.651Z,0.50
2019-05-16T01:46:39.207Z,0.50
2019-05-16T01:47:39.336Z,1.20
2019-05-16T01:48:38.679Z,1.20
2019-05-16T01:49:38.684Z,1.20
2019-05-16T01:50:38.963Z,1.20
2019-05-16T01:51:38.676Z,1.20
2019-05-16T01:52:38.673Z,1.20
2019-05-16T01:53:39.473Z,1.20
2019-05-16T01:54:38.960Z,1.20
2019-05-16T01:55:38.602Z,1.20
2019-05-16T01:56:38.909Z,1.20
2019-05-16T01:57:39.287Z,1.20
2019-05-16T01:58:38.618Z,0.90
2019-05-16T01:59:38.690Z,0.90
2019-05-16T02:00:49.745Z,0.90
2019-05-16T02:01:38.576Z,0.90
2019-05-16T02:02:38.794Z,0.90
2019-05-16T02:03:38.864Z,0.90
2019-05-16T02:04:38.625Z,0.90
2019-05-16T02:05:38.913Z,0.90
2019-05-16T02:06:50.796Z,0.90
2019-05-16T02:07:39.018Z,0.90
2019-05-16T02:08:38.608Z,2.50
2019-05-16T02:09:38.620Z,2.50
2019-05-16T02:10:38.694Z,2.50
2019-05-16T02:11:38.888Z,2.50
2019-05-16T02:12:38.717Z,2.50
2019-05-16T02:13:39.198Z,2.50
2019-05-16T02:14:38.901Z,2.50
2019-05-16T02:15:38.693Z,2.50
2019-05-16T02:16:38.685Z,2.50
2019-05-16T02:17:38.741Z,2.50
2019-05-16T02:18:38.690Z,0.90
2019-05-16T02:19:38.693Z,0.90
2019-05-16T02:20:39.244Z,0.90
2019-05-16T02:21:38.984Z,0.90
2019-05-16T02:22:39.157Z,0.90
2019-05-16T02:23:38.620Z,0.90
2019-05-16T02:24:38.980Z,0.90
2019-05-16T02:25:40.791Z,0.90
2019-05-16T02:26:38.789Z,0.90
2019-05-16T02:27:41.006Z,0.90
2019-05-16T02:28:40.766Z,0.70
2019-05-16T02:29:40.105Z,0.70
2019-05-16T02:30:41.955Z,0.70
2019-05-16T02:31:41.796Z,0.70
2019-05-16T02:32:41.576Z,0.70
2019-05-16T02:33:40.567Z,0.70
2019-05-16T02:34:41.391Z,0.70
2019-05-16T02:35:40.568Z,0.70
2019-05-16T02:36:40.499Z,0.70
2019-05-16T02:37:41.734Z,0.70
2019-05-16T02:38:42.023Z,2.50
2019-05-16T02:39:40.980Z,2.50
2019-05-16T02:40:41.545Z,2.50
2019-05-16T02:41:42.605Z,2.50
2019-05-16T02:42:42.087Z,2.50
2019-05-16T02:43:41.728Z,2.50
2019-05-16T02:44:41.220Z,2.50
2019-05-16T02:45:41.590Z,2.50
2019-05-16T02:46:41.830Z,2.50
2019-05-16T02:47:42.026Z,2.50
2019-05-16T02:48:41.006Z,1.50
2019-05-16T02:49:41.935Z,1.50
2019-05-16T02:50:41.277Z,1.50
2019-05-16T02:51:40.598Z,1.50
2019-05-16T02:52:41.386Z,1.50
2019-05-16T02:53:41.459Z,1.50
2019-05-16T02:54:41.197Z,1.50
2019-05-16T02:55:41.075Z,1.50
2019-05-16T02:56:41.449Z,1.50
2019-05-16T02:57:41.430Z,1.50
2019-05-16T02:58:41.355Z,2.80
2019-05-16T02:59:41.615Z,2.80
2019-05-16T03:00:42.670Z,2.80
2019-05-16T03:01:40.887Z,2.80
2019-05-16T03:02:41.722Z,2.80
2019-05-16T03:03:40.253Z,2.80
2019-05-16T03:04:40.990Z,2.80
2019-05-16T03:05:41.620Z,2.80
2019-05-16T03:06:41.038Z,2.80
2019-05-16T03:07:43.362Z,2.80
2019-05-16T03:08:41.137Z,1.00
2019-05-16T03:09:41.052Z,1.00
2019-05-16T03:10:41.284Z,1.00
2019-05-16T03:11:41.674Z,1.00
2019-05-16T03:12:41.185Z,1.00
2019-05-16T03:13:38.646Z,1.00
2019-05-16T03:14:41.690Z,1.00
2019-05-16T03:15:40.788Z,1.00
2019-05-16T03:16:41.536Z,1.00
2019-05-16T03:17:40.314Z,1.00
2019-05-16T03:18:41.382Z,0.60
2019-05-16T03:19:41.521Z,0.60
2019-05-16T03:20:40.848Z,0.60
2019-05-16T03:21:41.297Z,0.60
2019-05-16T03:22:41.005Z,0.60
2019-05-16T03:23:41.852Z,0.60
2019-05-16T03:24:41.767Z,0.60
2019-05-16T03:25:41.553Z,0.60
2019-05-16T03:26:40.866Z,0.60
2019-05-16T03:27:41.281Z,0.60
2019-05-16T03:28:41.254Z,3.10
2019-05-16T03:29:41.605Z,3.10
2019-05-16T03:30:44.727Z,3.10
2019-05-16T03:31:44.653Z,3.10
2019-05-16T03:32:43.942Z,3.10
2019-05-16T03:33:47.469Z,3.10
2019-05-16T03:34:43.383Z,3.10
2019-05-16T03:35:43.961Z,3.10
2019-05-16T03:36:43.372Z,3.10
2019-05-16T03:37:54.355Z,3.10
2019-05-16T03:38:41.199Z,1.40
2019-05-16T03:39:40.692Z,1.40
2019-05-16T03:40:41.243Z,1.40
2019-05-16T03:41:41.346Z,1.40
2019-05-16T03:42:41.585Z,1.40
2019-05-16T03:43:41.213Z,1.40
2019-05-16T03:44:41.118Z,1.40
2019-05-16T03:45:41.761Z,1.40
2019-05-16T03:46:41.325Z,1.40
2019-05-16T03:47:42.284Z,1.40
2019-05-16T03:48:40.815Z,1.70
2019-05-16T03:49:41.985Z,1.70
2019-05-16T03:50:41.216Z,1.70
2019-05-16T03:51:41.234Z,1.70
2019-05-16T03:52:42.908Z,1.70
2019-05-16T03:53:40.349Z,1.70
2019-05-16T03:54:41.764Z,1.70
2019-05-16T03:55:40.747Z,1.70
2019-05-16T03:56:40.841Z,1.70
2019-05-16T03:57:41.506Z,1.70
2019-05-16T03:58:41.507Z,1.20
2019-05-16T03:59:40.840Z,1.20
2019-05-16T04:00:45.325Z,1.20
2019-05-16T04:01:40.966Z,1.20
2019-05-16T04:02:41.934Z,1.20
2019-05-16T04:03:41.186Z,1.20
2019-05-16T04:04:41.495Z,1.20
2019-05-16T04:05:41.337Z,1.20
2019-05-16T04:06:41.653Z,1.20
2019-05-16T04:07:41.400Z,1.20
2019-05-16T04:08:41.238Z,2.00
2019-05-16T04:09:41.264Z,2.00
2019-05-16T04:10:40.941Z,2.00
2019-05-16T04:11:42.152Z,2.00
2019-05-16T04:12:41.918Z,2.00
2019-05-16T04:13:41.197Z,2.00
2019-05-16T04:14:40.964Z,2.00
2019-05-16T04:15:40.763Z,2.00
2019-05-16T04:16:41.419Z,2.00
2019-05-16T04:17:41.171Z,2.00
2019-05-16T04:18:41.743Z,0.80
2019-05-16T04:19:41.360Z,0.80
2019-05-16T04:20:40.611Z,0.80
2019-05-16T04:21:41.775Z,0.80
2019-05-16T04:22:40.814Z,0.80
2019-05-16T04:23:41.698Z,0.80
2019-05-16T04:24:41.577Z,0.80
2019-05-16T04:25:41.039Z,0.80
2019-05-16T04:26:41.139Z,0.80
2019-05-16T04:27:41.737Z,0.80
2019-05-16T04:28:41.280Z,2.90
2019-05-16T04:29:40.764Z,2.90
2019-05-16T04:30:41.545Z,2.90
2019-05-16T04:31:41.253Z,2.90
2019-05-16T04:32:41.474Z,2.90
2019-05-16T04:33:41.509Z,2.90
2019-05-16T04:34:41.583Z,2.90
2019-05-16T04:35:41.175Z,2.90
2019-05-16T04:36:40.664Z,2.90
2019-05-16T04:37:42.254Z,2.90
2019-05-16T04:38:45.032Z,1.70
2019-05-16T04:39:41.431Z,1.70
2019-05-16T04:40:42.181Z,1.70
2019-05-16T04:41:40.923Z,1.70
2019-05-16T04:42:41.482Z,1.70
2019-05-16T04:43:41.353Z,1.70
2019-05-16T04:44:41.697Z,1.70
2019-05-16T04:45:41.399Z,1.70
2019-05-16T04:46:41.046Z,1.70
2019-05-16T04:47:41.353Z,1.70
2019-05-16T04:48:41.682Z,2.50
2019-05-16T04:49:41.206Z,2.50
2019-05-16T04:50:41.783Z,2.50
2019-05-16T04:51:41.487Z,2.50
2019-05-16T04:52:41.396Z,2.50
2019-05-16T04:53:42.108Z,2.50
2019-05-16T04:54:41.903Z,2.50
2019-05-16T04:55:41.819Z,2.50
2019-05-16T04:56:41.311Z,2.50
2019-05-16T04:57:42.322Z,2.50
2019-05-16T04:58:40.757Z,2.10
2019-05-16T04:59:41.615Z,2.10
2019-05-16T05:00:41.846Z,2.10
2019-05-16T05:01:41.265Z,2.10
2019-05-16T05:02:41.843Z,2.10
2019-05-16T05:03:41.007Z,2.10
2019-05-16T05:04:41.339Z,2.10
2019-05-16T05:05:41.420Z,2.10
2019-05-16T05:06:40.549Z,2.10
2019-05-16T05:07:40.637Z,2.10
2019-05-16T05:08:52.954Z,2.20
2019-05-16T05:09:40.884Z,2.20
2019-05-16T05:10:40.647Z,2.20
2019-05-16T05:11:41.232Z,2.20
2019-05-16T05:12:40.868Z,2.20
2019-05-16T05:13:41.206Z,2.20
2019-05-16T05:14:41.468Z,2.20
2019-05-16T05:15:40.074Z,2.20
2019-05-16T05:16:41.096Z,2.20
2019-05-16T05:17:41.263Z,2.20
2019-05-16T05:18:40.953Z,0.80
2019-05-16T05:19:41.450Z,0.80
2019-05-16T05:20:40.993Z,0.80
2019-05-16T05:21:40.961Z,0.80
2019-05-16T05:22:39.745Z,0.80
2019-05-16T05:23:40.674Z,0.80
2019-05-16T05:24:40.614Z,0.80
2019-05-16T05:25:40.397Z,0.80
2019-05-16T05:26:41.137Z,0.80
2019-05-16T05:27:40.969Z,0.80
2019-05-16T05:28:40.169Z,1.80
2019-05-16T05:29:39.821Z,1.80
2019-05-16T05:30:40.717Z,1.80
2019-05-16T05:31:44.609Z,1.80
2019-05-16T05:32:41.061Z,1.80
2019-05-16T05:33:41.582Z,1.80
2019-05-16T05:34:39.866Z,1.80
2019-05-16T05:35:40.839Z,1.80
2019-05-16T05:36:40.893Z,1.80
2019-05-16T05:37:40.949Z,1.80
2019-05-16T05:38:40.280Z,1.70
2019-05-16T05:39:39.727Z,1.70
2019-05-16T05:40:40.456Z,1.70
2019-05-16T05:41:40.127Z,1.70
2019-05-16T05:42:39.910Z,1.70
2019-05-16T05:43:39.735Z,1.70
2019-05-16T05:44:40.146Z,1.70
2019-05-16T05:45:40.151Z,1.70
2019-05-16T05:46:40.064Z,1.70
2019-05-16T05:47:40.212Z,1.70
2019-05-16T05:48:40.964Z,1.40
2019-05-16T05:49:40.469Z,1.40
2019-05-16T05:50:40.147Z,1.40
2019-05-16T05:51:40.673Z,1.40
2019-05-16T05:52:41.213Z,1.40
2019-05-16T05:53:40.168Z,1.40
2019-05-16T05:54:40.727Z,1.40
2019-05-16T05:55:40.462Z,1.40
2019-05-16T05:56:39.789Z,1.40
2019-05-16T05:57:40.373Z,1.40
2019-05-16T05:58:40.759Z,2.99
2019-05-16T05:59:40.446Z,2.99
2019-05-16T06:00:40.517Z,2.99
2019-05-16T06:01:40.712Z,2.99
2019-05-16T06:02:40.271Z,2.99
2019-05-16T06:03:39.905Z,2.99
2019-05-16T06:04:39.545Z,2.99
2019-05-16T06:05:41.103Z,2.99
2019-05-16T06:06:42.805Z,2.99
2019-05-16T06:07:40.553Z,2.99
2019-05-16T06:08:40.952Z,2.80
2019-05-16T06:09:50.484Z,2.80
2019-05-16T06:10:40.567Z,2.80
2019-05-16T06:11:40.622Z,2.80
2019-05-16T06:12:40.832Z,2.80
2019-05-16T06:13:40.448Z,2.80
2019-05-16T06:14:41.813Z,2.80
2019-05-16T06:15:40.016Z,2.80
2019-05-16T06:16:40.276Z,2.80
2019-05-16T06:17:40.167Z,2.80
2019-05-16T06:18:39.671Z,7.00
2019-05-16T06:19:40.217Z,7.00
2019-05-16T06:20:40.081Z,7.00
2019-05-16T06:21:44.609Z,7.00
2019-05-16T06:22:40.311Z,7.00
2019-05-16T06:23:40.282Z,7.00
2019-05-16T06:24:39.935Z,7.00
2019-05-16T06:25:40.523Z,7.00
2019-05-16T06:26:39.775Z,7.00
2019-05-16T06:27:40.606Z,7.00
2019-05-16T06:28:41.249Z,2.40
2019-05-16T06:29:40.271Z,2.40
2019-05-16T06:30:40.736Z,2.40
2019-05-16T06:31:40.663Z,2.40
2019-05-16T06:32:39.540Z,2.40
2019-05-16T06:33:41.115Z,2.40
2019-05-16T06:34:40.403Z,2.40
2019-05-16T06:35:40.205Z,2.40
2019-05-16T06:36:40.087Z,2.40
2019-05-16T06:37:40.547Z,2.40
2019-05-16T06:38:40.526Z,2.20
2019-05-16T06:39:42.759Z,2.20
2019-05-16T06:40:40.228Z,2.20
2019-05-16T06:41:39.724Z,2.20
2019-05-16T06:42:40.290Z,2.20
2019-05-16T06:43:40.021Z,2.20
2019-05-16T06:44:40.148Z,2.20
2019-05-16T06:45:40.177Z,2.20
2019-05-16T06:46:54.343Z,2.20
2019-05-16T06:47:39.668Z,2.20
2019-05-16T06:48:39.866Z,2.10
2019-05-16T06:49:40.281Z,2.10
2019-05-16T06:50:40.199Z,2.10
2019-05-16T06:51:39.788Z,2.10
2019-05-16T06:52:40.822Z,2.10
2019-05-16T06:53:40.459Z,2.10
2019-05-16T06:54:40.719Z,2.10
2019-05-16T06:55:40.144Z,2.10
2019-05-16T06:56:40.053Z,2.10
2019-05-16T06:57:40.827Z,2.10
2019-05-16T06:58:47.567Z,3.50
2019-05-16T06:59:40.477Z,3.50
2019-05-16T07:00:40.577Z,3.50
2019-05-16T07:01:40.415Z,3.50
2019-05-16T07:02:40.838Z,3.50
2019-05-16T07:03:40.101Z,3.50
2019-05-16T07:04:39.836Z,3.50
2019-05-16T07:05:40.615Z,3.50
2019-05-16T07:06:54.785Z,3.50
2019-05-16T07:07:40.457Z,3.50
2019-05-16T07:08:40.307Z,2.70
2019-05-16T07:09:41.787Z,2.70
2019-05-16T07:10:39.753Z,2.70
2019-05-16T07:11:39.803Z,2.70
2019-05-16T07:12:41.358Z,2.70
2019-05-16T07:13:40.646Z,2.70
2019-05-16T07:14:40.580Z,2.70
2019-05-16T07:15:40.192Z,2.70
2019-05-16T07:16:40.483Z,2.70
2019-05-16T07:17:39.801Z,2.70
2019-05-16T07:18:40.227Z,3.20
2019-05-16T07:19:40.783Z,3.20
2019-05-16T07:20:40.008Z,3.20
2019-05-16T07:21:39.701Z,3.20
2019-05-16T07:22:40.624Z,3.20
2019-05-16T07:23:40.442Z,3.20
2019-05-16T07:24:39.977Z,3.20
2019-05-16T07:25:40.726Z,3.20
2019-05-16T07:26:40.518Z,3.20
2019-05-16T07:27:40.102Z,3.20
2019-05-16T07:28:40.587Z,3.99
2019-05-16T07:29:40.158Z,3.99
2019-05-16T07:30:40.820Z,3.99
2019-05-16T07:31:40.601Z,3.99
2019-05-16T07:32:40.412Z,3.99
2019-05-16T07:33:40.722Z,3.99
2019-05-16T07:34:40.373Z,3.99
2019-05-16T07:35:40.156Z,3.99
2019-05-16T07:36:40.541Z,3.99
2019-05-16T07:37:40.017Z,3.99
2019-05-16T07:38:40.095Z,3.50
2019-05-16T07:39:41.887Z,3.50
2019-05-16T07:40:40.048Z,3.50
2019-05-16T07:41:40.157Z,3.50
2019-05-16T07:42:40.292Z,3.50
2019-05-16T07:43:40.069Z,3.50
2019-05-16T07:44:40.797Z,3.50
2019-05-16T07:45:40.630Z,3.50
2019-05-16T07:46:40.847Z,3.50
2019-05-16T07:47:40.248Z,3.50
2019-05-16T07:48:40.375Z,3.50
2019-05-16T07:49:40.675Z,3.00
2019-05-16T07:50:40.491Z,3.00
2019-05-16T07:51:40.253Z,3.00
2019-05-16T07:52:40.274Z,3.00
2019-05-16T07:53:40.238Z,3.00
2019-05-16T07:54:40.491Z,3.00
2019-05-16T07:55:40.047Z,3.00
2019-05-16T07:56:40.725Z,3.00
2019-05-16T07:57:39.843Z,3.00
2019-05-16T07:58:40.944Z,3.00
2019-05-16T07:59:40.505Z,4.90
2019-05-16T08:00:49.801Z,4.90
2019-05-16T08:01:39.865Z,4.90
2019-05-16T08:02:40.357Z,4.90
2019-05-16T08:03:43.664Z,4.90
2019-05-16T08:04:40.589Z,4.90
2019-05-16T08:05:41.250Z,4.90
2019-05-16T08:06:40.840Z,4.90
2019-05-16T08:07:40.765Z,4.90
2019-05-16T08:08:40.362Z,4.90
2019-05-16T08:09:39.756Z,3.90
2019-05-16T08:10:45.563Z,3.90
2019-05-16T08:11:40.839Z,3.90
2019-05-16T08:12:40.730Z,3.90
2019-05-16T08:13:39.990Z,3.90
2019-05-16T08:14:40.946Z,3.90
2019-05-16T08:15:40.704Z,3.90
2019-05-16T08:16:40.795Z,3.90
2019-05-16T08:17:41.450Z,3.90
2019-05-16T08:18:41.670Z,3.90
2019-05-16T08:19:39.972Z,1.30
2019-05-16T08:20:41.329Z,1.30
2019-05-16T08:21:41.074Z,1.30
2019-05-16T08:22:41.283Z,1.30
2019-05-16T08:23:41.209Z,1.30
2019-05-16T08:24:40.196Z,1.30
2019-05-16T08:25:41.210Z,1.30
2019-05-16T08:26:42.561Z,1.30
2019-05-16T08:27:41.265Z,1.30
2019-05-16T08:28:41.304Z,1.30
2019-05-16T08:29:40.405Z,1.80
2019-05-16T08:30:41.196Z,1.80
2019-05-16T08:31:42.365Z,1.80
2019-05-16T08:32:42.184Z,1.80
2019-05-16T08:33:41.496Z,1.80
2019-05-16T08:34:40.881Z,1.80
2019-05-16T08:35:41.376Z,1.80
2019-05-16T08:36:41.111Z,1.80
2019-05-16T08:38:43.025Z,1.80
2019-05-16T08:39:41.373Z,1.80
2019-05-16T08:41:01.096Z,1.80
2019-05-16T08:41:42.141Z,1.80
2019-05-16T08:42:41.608Z,1.80
2019-05-16T08:43:41.382Z,1.80
2019-05-16T08:44:41.760Z,1.80
2019-05-16T08:45:41.767Z,1.80
2019-05-16T08:46:42.402Z,1.80
2019-05-16T08:47:41.820Z,1.80
2019-05-16T08:48:42.022Z,1.80
2019-05-16T08:49:41.911Z,1.70
2019-05-16T08:50:42.042Z,1.70
2019-05-16T08:51:42.395Z,1.70
2019-05-16T08:52:43.031Z,1.70
2019-05-16T08:53:43.320Z,1.70
2019-05-16T08:54:42.991Z,1.70
2019-05-16T08:55:43.009Z,1.70
2019-05-16T08:56:43.797Z,1.70
2019-05-16T08:57:40.939Z,1.70
2019-05-16T08:58:41.101Z,1.70
2019-05-16T08:59:41.118Z,1.70
2019-05-16T09:00:41.865Z,1.70
2019-05-16T09:01:48.294Z,1.70
2019-05-16T09:02:42.210Z,1.70
2019-05-16T09:03:41.556Z,1.70
2019-05-16T09:04:43.695Z,1.70
2019-05-16T09:05:42.636Z,1.70
2019-05-16T09:06:42.454Z,1.70
2019-05-16T09:07:38.897Z,1.70
2019-05-16T09:08:38.918Z,1.70
2019-05-16T09:09:44.448Z,5.60
2019-05-16T09:10:59.830Z,5.60
2019-05-16T09:11:44.667Z,5.60
2019-05-16T09:12:38.990Z,5.60
2019-05-16T09:13:38.998Z,5.60
2019-05-16T09:14:39.272Z,5.60
2019-05-16T09:15:39.156Z,5.60
2019-05-16T09:16:38.990Z,5.60
2019-05-16T09:17:39.093Z,5.60
2019-05-16T09:18:30.425Z,1.80
2019-05-16T09:18:41.083Z,5.60
2019-05-16T09:19:38.929Z,2.10
2019-05-16T09:20:42.713Z,2.10
2019-05-16T09:21:38.883Z,2.10
2019-05-16T09:22:38.886Z,2.10
2019-05-16T09:23:38.897Z,2.10
2019-05-16T09:24:38.887Z,2.10
2019-05-16T09:25:38.867Z,2.10
2019-05-16T09:26:38.894Z,2.10
2019-05-16T09:27:38.979Z,2.10
2019-05-16T09:28:39.270Z,2.10
2019-05-16T09:29:39.015Z,0.90
2019-05-16T09:30:38.944Z,0.90
2019-05-16T09:31:39.007Z,0.90
2019-05-16T09:32:42.592Z,0.90
2019-05-16T09:33:38.935Z,0.90
2019-05-16T09:34:39.011Z,0.90
2019-05-16T09:35:38.934Z,0.90
2019-05-16T09:36:39.014Z,0.90
2019-05-16T09:37:38.943Z,0.90
2019-05-16T09:38:39.012Z,0.90
2019-05-16T09:39:38.974Z,2.20
2019-05-16T09:40:39.038Z,2.20
2019-05-16T09:41:53.116Z,2.20
2019-05-16T09:42:39.007Z,2.20
2019-05-16T09:43:39.273Z,2.20
2019-05-16T09:44:39.010Z,2.20
2019-05-16T09:45:39.027Z,2.20
2019-05-16T09:46:39.016Z,2.20
2019-05-16T09:47:39.300Z,2.20
2019-05-16T09:48:39.020Z,2.20
2019-05-16T09:49:38.998Z,2.00
2019-05-16T09:50:38.995Z,2.00
2019-05-16T09:51:38.910Z,2.00
2019-05-16T09:52:38.881Z,2.00
2019-05-16T09:53:38.997Z,2.00
2019-05-16T09:54:38.976Z,2.00
2019-05-16T09:55:38.871Z,2.00
2019-05-16T09:56:38.965Z,2.00
2019-05-16T09:57:39.007Z,2.00
2019-05-16T09:58:38.952Z,2.00
2019-05-16T09:59:39.019Z,6.20
2019-05-16T10:00:39.029Z,6.20
2019-05-16T10:01:39.034Z,6.20
2019-05-16T10:02:39.024Z,6.20
2019-05-16T10:03:38.958Z,6.20
2019-05-16T10:04:39.033Z,6.20
2019-05-16T10:05:38.955Z,6.20
2019-05-16T10:06:39.034Z,6.20
2019-05-16T10:07:39.206Z,6.20
2019-05-16T10:08:38.968Z,6.20
2019-05-16T10:09:44.997Z,2.30
2019-05-16T10:10:38.961Z,2.30
2019-05-16T10:11:41.940Z,2.30
2019-05-16T10:12:38.961Z,2.30
2019-05-16T10:13:38.970Z,2.30
2019-05-16T10:14:38.965Z,2.30
2019-05-16T10:15:39.030Z,2.30
2019-05-16T10:16:38.966Z,2.30
2019-05-16T10:17:39.039Z,2.30
2019-05-16T10:18:38.992Z,2.30
2019-05-16T10:19:39.034Z,1.60
2019-05-16T10:20:39.037Z,1.60
2019-05-16T10:21:39.046Z,1.60
2019-05-16T10:22:38.970Z,1.60
2019-05-16T10:23:39.047Z,1.60
2019-05-16T10:24:39.044Z,1.60
2019-05-16T10:25:38.973Z,1.60
2019-05-16T10:26:39.036Z,1.60
2019-05-16T10:27:39.041Z,1.60
2019-05-16T10:28:38.970Z,1.60
2019-05-16T10:29:38.898Z,3.00
2019-05-16T10:30:38.992Z,3.00
2019-05-16T10:31:48.437Z,3.00
2019-05-16T10:32:39.861Z,3.00
2019-05-16T10:33:39.299Z,3.00
2019-05-16T10:34:39.100Z,3.00
2019-05-16T10:35:38.906Z,3.00
2019-05-16T10:36:38.967Z,3.00
2019-05-16T10:37:38.997Z,3.00
2019-05-16T10:38:38.923Z,3.00
2019-05-16T10:39:38.984Z,3.50
2019-05-16T10:40:39.051Z,3.50
2019-05-16T10:41:39.109Z,3.50
2019-05-16T10:42:39.054Z,3.50
2019-05-16T10:43:39.051Z,3.50
2019-05-16T10:44:39.102Z,3.50
2019-05-16T10:45:39.059Z,3.50
2019-05-16T10:46:39.053Z,3.50
2019-05-16T10:47:38.993Z,3.50
2019-05-16T10:48:39.058Z,3.50
2019-05-16T10:49:41.951Z,2.50
2019-05-16T10:50:39.119Z,2.50
2019-05-16T10:51:39.026Z,2.50
2019-05-16T10:52:38.993Z,2.50
2019-05-16T10:54:54.187Z,2.50
2019-05-16T10:55:39.125Z,2.50
2019-05-16T10:56:40.545Z,2.50
2019-05-16T10:57:39.119Z,2.50
2019-05-16T10:59:00.756Z,2.50
2019-05-16T11:00:06.786Z,3.70
2019-05-16T11:01:05.366Z,3.70
2019-05-16T11:01:38.981Z,3.70
2019-05-16T11:02:39.169Z,3.70
2019-05-16T11:03:39.084Z,3.70
2019-05-16T11:04:53.772Z,3.70
2019-05-16T11:05:39.738Z,3.70
2019-05-16T11:06:39.001Z,3.70
2019-05-16T11:07:39.053Z,3.70
2019-05-16T11:08:39.630Z,3.70
2019-05-16T11:09:39.437Z,3.70
2019-05-16T11:10:39.112Z,3.70
2019-05-16T11:11:39.053Z,3.70
2019-05-16T11:12:50.349Z,3.70
2019-05-16T11:13:39.068Z,3.70
2019-05-16T11:14:38.956Z,3.70
2019-05-16T11:15:38.971Z,3.70
2019-05-16T11:16:39.029Z,3.70
2019-05-16T11:17:39.102Z,3.70
2019-05-16T11:18:38.949Z,3.70
2019-05-16T11:19:39.043Z,1.70
2019-05-16T11:20:39.072Z,1.70
2019-05-16T11:21:39.081Z,1.70
2019-05-16T11:22:39.091Z,1.70
2019-05-16T11:23:39.015Z,1.70
2019-05-16T11:24:39.063Z,1.70
2019-05-16T11:25:39.014Z,1.70
2019-05-16T11:26:39.088Z,1.70
2019-05-16T11:27:39.019Z,1.70
2019-05-16T11:28:39.025Z,1.70
2019-05-16T11:29:39.025Z,1.60
2019-05-16T11:30:39.121Z,1.60
2019-05-16T11:31:39.078Z,1.60
2019-05-16T11:32:39.097Z,1.60
2019-05-16T11:33:39.024Z,1.60
2019-05-16T11:34:39.093Z,1.60
2019-05-16T11:35:39.096Z,1.60
2019-05-16T11:36:39.025Z,1.60
2019-05-16T11:37:39.109Z,1.60
2019-05-16T11:38:39.033Z,1.60
2019-05-16T11:39:39.093Z,2.50
2019-05-16T11:40:39.068Z,2.50
2019-05-16T11:41:39.029Z,2.50
2019-05-16T11:42:39.092Z,2.50
2019-05-16T11:43:39.033Z,2.50
2019-05-16T11:44:39.094Z,2.50
2019-05-16T11:45:39.030Z,2.50
2019-05-16T11:46:39.105Z,2.50
2019-05-16T11:47:39.031Z,2.50
2019-05-16T11:48:39.047Z,2.50
2019-05-16T11:49:39.093Z,4.20
2019-05-16T11:50:39.060Z,4.20
2019-05-16T11:51:39.031Z,4.20
2019-05-16T11:52:40.807Z,4.20
2019-05-16T11:53:39.068Z,4.20
2019-05-16T11:54:39.098Z,4.20
2019-05-16T11:55:54.042Z,4.20
2019-05-16T11:56:39.059Z,4.20
2019-05-16T11:57:39.032Z,4.20
2019-05-16T11:58:39.097Z,4.20
2019-05-16T11:59:39.051Z,2.20
2019-05-16T12:00:39.132Z,2.20
2019-05-16T12:01:39.044Z,2.20
2019-05-16T12:02:42.703Z,2.20
2019-05-16T12:03:39.050Z,2.20
2019-05-16T12:04:39.056Z,2.20
2019-05-16T12:05:39.047Z,2.20
2019-05-16T12:06:39.114Z,2.20
2019-05-16T12:07:44.178Z,2.20
2019-05-16T12:08:39.054Z,2.20
2019-05-16T12:09:46.848Z,2.30
2019-05-16T12:10:39.125Z,2.30
2019-05-16T12:11:39.056Z,2.30
2019-05-16T12:12:39.121Z,2.30
2019-05-16T12:13:39.050Z,2.30
2019-05-16T12:14:39.056Z,2.30
2019-05-16T12:15:39.127Z,2.30
2019-05-16T12:16:39.123Z,2.30
2019-05-16T12:17:39.055Z,2.30
2019-05-16T12:18:39.051Z,2.30
2019-05-16T12:19:43.889Z,2.10
2019-05-16T12:20:39.128Z,2.10
2019-05-16T12:21:39.060Z,2.10
2019-05-16T12:22:39.126Z,2.10
2019-05-16T12:23:39.058Z,2.10
2019-05-16T12:24:41.535Z,2.10
2019-05-16T12:25:39.138Z,2.10
2019-05-16T12:26:39.142Z,2.10
2019-05-16T12:27:42.155Z,2.10
2019-05-16T12:28:39.133Z,2.10
2019-05-16T12:29:39.063Z,3.20
2019-05-16T12:30:40.452Z,3.20
2019-05-16T12:31:54.109Z,3.20
2019-05-16T12:32:39.065Z,3.20
2019-05-16T12:33:39.065Z,3.20
2019-05-16T12:34:39.063Z,3.20
2019-05-16T12:35:39.142Z,3.20
2019-05-16T12:36:39.135Z,3.20
2019-05-16T12:37:39.073Z,3.20
2019-05-16T12:38:39.069Z,3.20
2019-05-16T12:39:39.138Z,2.20
2019-05-16T12:40:39.077Z,2.20
2019-05-16T12:41:40.951Z,2.20
2019-05-16T12:42:39.129Z,2.20
2019-05-16T12:43:48.738Z,2.20
2019-05-16T12:44:39.143Z,2.20
2019-05-16T12:45:39.144Z,2.20
2019-05-16T12:46:39.140Z,2.20
2019-05-16T12:47:39.149Z,2.20
2019-05-16T12:48:39.195Z,2.20
2019-05-16T12:49:39.025Z,5.00
2019-05-16T12:50:39.239Z,5.00
2019-05-16T12:51:39.062Z,5.00
2019-05-16T12:52:39.065Z,5.00
2019-05-16T12:53:39.048Z,5.00
2019-05-16T12:54:39.077Z,5.00
2019-05-16T12:55:39.111Z,5.00
2019-05-16T12:56:39.073Z,5.00
2019-05-16T12:57:39.087Z,5.00
2019-05-16T12:58:42.134Z,5.00
2019-05-16T12:59:42.278Z,2.30
2019-05-16T13:00:44.195Z,2.30
2019-05-16T13:01:39.087Z,2.30
2019-05-16T13:02:39.114Z,2.30
2019-05-16T13:03:39.025Z,2.30
2019-05-16T13:04:39.146Z,2.30
2019-05-16T13:05:39.049Z,2.30
2019-05-16T13:06:39.095Z,2.30
2019-05-16T13:07:39.107Z,2.30
2019-05-16T13:08:39.018Z,2.30
2019-05-16T13:09:39.179Z,2.60
2019-05-16T13:10:39.209Z,2.60
2019-05-16T13:11:39.091Z,2.60
2019-05-16T13:12:39.173Z,2.60
2019-05-16T13:13:39.162Z,2.60
2019-05-16T13:14:40.415Z,2.60
2019-05-16T13:15:42.102Z,2.60
2019-05-16T13:16:39.131Z,2.60
2019-05-16T13:17:39.169Z,2.60
2019-05-16T13:18:39.195Z,2.60
2019-05-16T13:19:44.284Z,3.30